sensor_id;sensor_type;location;lat;lon;timestamp;pressure;altitude;pressure_sealevel;temperature;humidity
18509;BME280;9383;50.928;12.116;2023-05-12T00:01:18;98814.19;;;11.25;97.32
18509;BME280;9383;50.928;12.116;2023-05-12T00:03:48;98817.09;;;11.19;97.13
18509;BME280;9383;50.928;12.116;2023-05-12T00:06:15;98815.56;;;11.14;97.00
18509;BME280;9383;50.928;12.116;2023-05-12T00:08:41;98810.53;;;11.06;97.31
18509;BME280;9383;50.928;12.116;2023-05-12T00:11:08;98814.19;;;11.03;97.68
18509;BME280;9383;50.928;12.116;2023-05-12T00:13:35;98816.03;;;11.01;98.29
18509;BME280;9383;50.928;12.116;2023-05-12T00:16:02;98816.22;;;10.96;98.30
18509;BME280;9383;50.928;12.116;2023-05-12T00:18:30;98816.44;;;10.90;98.48
18509;BME280;9383;50.928;12.116;2023-05-12T00:20:56;98816.56;;;10.87;98.09
18509;BME280;9383;50.928;12.116;2023-05-12T00:23:23;98816.69;;;10.84;98.29
18509;BME280;9383;50.928;12.116;2023-05-12T00:25:50;98815.88;;;10.82;98.20
18509;BME280;9383;50.928;12.116;2023-05-12T00:28:17;98821.28;;;10.79;97.86
18509;BME280;9383;50.928;12.116;2023-05-12T00:30:44;98811.69;;;10.76;98.21
18509;BME280;9383;50.928;12.116;2023-05-12T00:33:11;98814.31;;;10.76;98.49
18509;BME280;9383;50.928;12.116;2023-05-12T00:35:39;98805.53;;;10.74;98.39
18509;BME280;9383;50.928;12.116;2023-05-12T00:38:06;98815.34;;;10.72;98.56
18509;BME280;9383;50.928;12.116;2023-05-12T00:40:33;98812.81;;;10.69;98.61
18509;BME280;9383;50.928;12.116;2023-05-12T00:43:00;98812.06;;;10.65;98.83
18509;BME280;9383;50.928;12.116;2023-05-12T00:45:27;98810.41;;;10.63;99.33
18509;BME280;9383;50.928;12.116;2023-05-12T00:47:56;98803.38;;;10.62;99.33
18509;BME280;9383;50.928;12.116;2023-05-12T00:50:23;98806.94;;;10.61;99.40
18509;BME280;9383;50.928;12.116;2023-05-12T00:52:50;98809.56;;;10.61;99.57
18509;BME280;9383;50.928;12.116;2023-05-12T00:55:17;98810.50;;;10.60;99.48
18509;BME280;9383;50.928;12.116;2023-05-12T00:57:45;98807.03;;;10.58;99.95
18509;BME280;9383;50.928;12.116;2023-05-12T01:00:12;98796.56;;;10.54;100.00
18509;BME280;9383;50.928;12.116;2023-05-12T01:02:40;98806.38;;;10.52;100.00
18509;BME280;9383;50.928;12.116;2023-05-12T01:05:08;98797.66;;;10.49;100.00
18509;BME280;9383;50.928;12.116;2023-05-12T01:07:35;98796.84;;;10.47;100.00
18509;BME280;9383;50.928;12.116;2023-05-12T01:10:15;98809.22;;;10.46;100.00
18509;BME280;9383;50.928;12.116;2023-05-12T01:12:42;98808.41;;;10.44;100.00
18509;BME280;9383;50.928;12.116;2023-05-12T01:15:09;98808.41;;;10.44;100.00
18509;BME280;9383;50.928;12.116;2023-05-12T01:17:41;98797.09;;;10.39;100.00
18509;BME280;9383;50.928;12.116;2023-05-12T01:20:11;98794.78;;;10.30;100.00
18509;BME280;9383;50.928;12.116;2023-05-12T01:22:40;98795.81;;;10.25;100.00
18509;BME280;9383;50.928;12.116;2023-05-12T01:25:10;98808.19;;;10.25;100.00
18509;BME280;9383;50.928;12.116;2023-05-12T01:27:38;98803.81;;;10.24;100.00
18509;BME280;9383;50.928;12.116;2023-05-12T01:30:07;98810.88;;;10.23;100.00
18509;BME280;9383;50.928;12.116;2023-05-12T01:32:35;98807.38;;;10.23;100.00
18509;BME280;9383;50.928;12.116;2023-05-12T01:35:02;98801.41;;;10.18;100.00
18509;BME280;9383;50.928;12.116;2023-05-12T01:37:30;98808.78;;;10.08;100.00
18509;BME280;9383;50.928;12.116;2023-05-12T01:39:58;98806.28;;;10.03;100.00
18509;BME280;9383;50.928;12.116;2023-05-12T01:42:24;98796.75;;;9.99;100.00
18509;BME280;9383;50.928;12.116;2023-05-12T01:44:51;98803.91;;;9.95;100.00
18509;BME280;9383;50.928;12.116;2023-05-12T01:47:17;98802.31;;;9.91;100.00
18509;BME280;9383;50.928;12.116;2023-05-12T01:49:44;98805.09;;;9.87;100.00
18509;BME280;9383;50.928;12.116;2023-05-12T01:52:12;98801.81;;;9.80;100.00
18509;BME280;9383;50.928;12.116;2023-05-12T01:54:39;98807.31;;;9.74;100.00
18509;BME280;9383;50.928;12.116;2023-05-12T01:57:06;98804.75;;;9.70;100.00
18509;BME280;9383;50.928;12.116;2023-05-12T01:59:33;98803.09;;;9.68;100.00
18509;BME280;9383;50.928;12.116;2023-05-12T02:01:59;98804.88;;;9.67;100.00
18509;BME280;9383;50.928;12.116;2023-05-12T02:04:27;98798.88;;;9.62;100.00
18509;BME280;9383;50.928;12.116;2023-05-12T02:06:54;98799.97;;;9.55;100.00
18509;BME280;9383;50.928;12.116;2023-05-12T02:09:21;98800.19;;;9.49;100.00
18509;BME280;9383;50.928;12.116;2023-05-12T02:11:48;98813.56;;;9.44;100.00
18509;BME280;9383;50.928;12.116;2023-05-12T02:14:16;98812.06;;;9.35;100.00
18509;BME280;9383;50.928;12.116;2023-05-12T02:16:43;98812.28;;;9.29;100.00
18509;BME280;9383;50.928;12.116;2023-05-12T02:19:09;98805.44;;;9.22;100.00
18509;BME280;9383;50.928;12.116;2023-05-12T02:21:36;98814.41;;;9.18;100.00
18509;BME280;9383;50.928;12.116;2023-05-12T02:24:03;98811.22;;;9.06;100.00
18509;BME280;9383;50.928;12.116;2023-05-12T02:26:29;98811.44;;;8.98;100.00
18509;BME280;9383;50.928;12.116;2023-05-12T02:28:56;98811.78;;;8.88;100.00
18509;BME280;9383;50.928;12.116;2023-05-12T02:31:22;98813.75;;;8.81;100.00
18509;BME280;9383;50.928;12.116;2023-05-12T02:33:49;98813.06;;;8.74;100.00
18509;BME280;9383;50.928;12.116;2023-05-12T02:36:17;98813.09;;;8.72;100.00
18509;BME280;9383;50.928;12.116;2023-05-12T02:38:44;98807.91;;;8.69;100.00
18509;BME280;9383;50.928;12.116;2023-05-12T02:41:11;98808.09;;;8.63;100.00
18509;BME280;9383;50.928;12.116;2023-05-12T02:43:38;98809.13;;;8.57;100.00
18509;BME280;9383;50.928;12.116;2023-05-12T02:46:05;98811.97;;;8.51;100.00
18509;BME280;9383;50.928;12.116;2023-05-12T02:48:32;98812.94;;;8.47;100.00
18509;BME280;9383;50.928;12.116;2023-05-12T02:50:59;98815.63;;;8.44;100.00
18509;BME280;9383;50.928;12.116;2023-05-12T02:53:25;98819.38;;;8.37;100.00
18509;BME280;9383;50.928;12.116;2023-05-12T02:55:53;98815.22;;;8.28;100.00
18509;BME280;9383;50.928;12.116;2023-05-12T02:58:20;98811.09;;;8.18;100.00
18509;BME280;9383;50.928;12.116;2023-05-12T03:00:50;98810.34;;;8.12;100.00
18509;BME280;9383;50.928;12.116;2023-05-12T03:03:17;98805.13;;;8.11;100.00
18509;BME280;9383;50.928;12.116;2023-05-12T03:05:43;98809.53;;;8.10;100.00
18509;BME280;9383;50.928;12.116;2023-05-12T03:08:11;98810.44;;;8.09;100.00
18509;BME280;9383;50.928;12.116;2023-05-12T03:10:38;98809.63;;;8.07;100.00
18509;BME280;9383;50.928;12.116;2023-05-12T03:13:04;98804.41;;;8.04;100.00
18509;BME280;9383;50.928;12.116;2023-05-12T03:15:32;98807.06;;;8.04;100.00
18509;BME280;9383;50.928;12.116;2023-05-12T03:17:58;98804.47;;;8.01;100.00
18509;BME280;9383;50.928;12.116;2023-05-12T03:20:26;98809.81;;;7.99;100.00
18509;BME280;9383;50.928;12.116;2023-05-12T03:22:53;98816.91;;;7.97;100.00
18509;BME280;9383;50.928;12.116;2023-05-12T03:25:20;98811.66;;;7.97;100.00
18509;BME280;9383;50.928;12.116;2023-05-12T03:27:50;98807.28;;;7.96;100.00
18509;BME280;9383;50.928;12.116;2023-05-12T03:30:16;98808.16;;;7.95;100.00
18509;BME280;9383;50.928;12.116;2023-05-12T03:32:43;98812.56;;;7.95;100.00
18509;BME280;9383;50.928;12.116;2023-05-12T03:35:11;98809.03;;;7.96;100.00
18509;BME280;9383;50.928;12.116;2023-05-12T03:37:37;98816.03;;;7.97;100.00
18509;BME280;9383;50.928;12.116;2023-05-12T03:40:04;98808.09;;;7.98;100.00
18509;BME280;9383;50.928;12.116;2023-05-12T03:42:31;98809.81;;;7.99;100.00
18509;BME280;9383;50.928;12.116;2023-05-12T03:44:58;98814.13;;;8.02;100.00
18509;BME280;9383;50.928;12.116;2023-05-12T03:47:24;98803.53;;;8.03;100.00
18509;BME280;9383;50.928;12.116;2023-05-12T03:49:51;98810.53;;;8.06;100.00
18509;BME280;9383;50.928;12.116;2023-05-12T03:52:17;98802.53;;;8.08;100.00
18509;BME280;9383;50.928;12.116;2023-05-12T03:54:44;98809.56;;;8.09;100.00
18509;BME280;9383;50.928;12.116;2023-05-12T03:57:11;98805.06;;;8.12;100.00
18509;BME280;9383;50.928;12.116;2023-05-12T03:59:38;98796.22;;;8.13;100.00
18509;BME280;9383;50.928;12.116;2023-05-12T04:02:04;98801.44;;;8.16;100.00
18509;BME280;9383;50.928;12.116;2023-05-12T04:04:33;98811.03;;;8.19;100.00
18509;BME280;9383;50.928;12.116;2023-05-12T04:06:59;98811.81;;;8.23;100.00
18509;BME280;9383;50.928;12.116;2023-05-12T04:09:32;98812.63;;;8.26;100.00
18509;BME280;9383;50.928;12.116;2023-05-12T04:11:59;98816.97;;;8.29;100.00
18509;BME280;9383;50.928;12.116;2023-05-12T04:14:26;98817.72;;;8.33;100.00
18509;BME280;9383;50.928;12.116;2023-05-12T04:16:52;98812.38;;;8.36;100.00
18509;BME280;9383;50.928;12.116;2023-05-12T04:19:19;98811.38;;;8.40;100.00
18509;BME280;9383;50.928;12.116;2023-05-12T04:21:45;98809.50;;;8.43;100.00
18509;BME280;9383;50.928;12.116;2023-05-12T04:24:12;98808.47;;;8.49;100.00
18509;BME280;9383;50.928;12.116;2023-05-12T04:26:39;98815.41;;;8.53;100.00
18509;BME280;9383;50.928;12.116;2023-05-12T04:29:05;98814.41;;;8.57;100.00
18509;BME280;9383;50.928;12.116;2023-05-12T04:31:32;98809.88;;;8.63;100.00
18509;BME280;9383;50.928;12.116;2023-05-12T04:33:59;98815.94;;;8.66;100.00
18509;BME280;9383;50.928;12.116;2023-05-12T04:36:25;98813.13;;;8.71;100.00
18509;BME280;9383;50.928;12.116;2023-05-12T04:38:52;98823.59;;;8.76;100.00
18509;BME280;9383;50.928;12.116;2023-05-12T04:41:21;98822.53;;;8.81;100.00
18509;BME280;9383;50.928;12.116;2023-05-12T04:43:48;98829.41;;;8.87;100.00
18509;BME280;9383;50.928;12.116;2023-05-12T04:46:14;98824.91;;;8.91;100.00
18509;BME280;9383;50.928;12.116;2023-05-12T04:48:41;98828.19;;;8.99;100.00
18509;BME280;9383;50.928;12.116;2023-05-12T04:51:09;98828.78;;;9.09;100.00
18509;BME280;9383;50.928;12.116;2023-05-12T04:53:36;98824.97;;;9.18;100.00
18509;BME280;9383;50.928;12.116;2023-05-12T04:56:03;98828.25;;;9.26;100.00
18509;BME280;9383;50.928;12.116;2023-05-12T04:58:30;98830.66;;;9.34;100.00
18509;BME280;9383;50.928;12.116;2023-05-12T05:00:56;98826.88;;;9.41;100.00
18509;BME280;9383;50.928;12.116;2023-05-12T05:03:24;98832.81;;;9.49;100.00
18509;BME280;9383;50.928;12.116;2023-05-12T05:05:51;98840.56;;;9.55;100.00
18509;BME280;9383;50.928;12.116;2023-05-12T05:08:18;98836.78;;;9.63;100.00
18509;BME280;9383;50.928;12.116;2023-05-12T05:10:44;98831.28;;;9.69;100.00
18509;BME280;9383;50.928;12.116;2023-05-12T05:13:11;98833.69;;;9.77;100.00
18509;BME280;9383;50.928;12.116;2023-05-12T05:15:37;98833.47;;;9.83;100.00
18509;BME280;9383;50.928;12.116;2023-05-12T05:18:04;98827.06;;;9.90;100.00
18509;BME280;9383;50.928;12.116;2023-05-12T05:20:31;98840.00;;;9.99;100.00
18509;BME280;9383;50.928;12.116;2023-05-12T05:22:59;98836.31;;;10.04;100.00
18509;BME280;9383;50.928;12.116;2023-05-12T05:25:28;98844.91;;;10.10;100.00
18509;BME280;9383;50.928;12.116;2023-05-12T05:27:54;98837.59;;;10.17;100.00
18509;BME280;9383;50.928;12.116;2023-05-12T05:30:21;98843.44;;;10.27;100.00
18509;BME280;9383;50.928;12.116;2023-05-12T05:32:47;98840.44;;;10.38;100.00
18509;BME280;9383;50.928;12.116;2023-05-12T05:35:14;98832.91;;;10.51;100.00
18509;BME280;9383;50.928;12.116;2023-05-12T05:37:41;98843.94;;;10.64;100.00
18509;BME280;9383;50.928;12.116;2023-05-12T05:40:08;98847.00;;;10.77;100.00
18509;BME280;9383;50.928;12.116;2023-05-12T05:42:34;98851.00;;;10.89;100.00
18509;BME280;9383;50.928;12.116;2023-05-12T05:45:01;98843.53;;;10.98;100.00
18509;BME280;9383;50.928;12.116;2023-05-12T05:47:29;98845.75;;;11.09;100.00
18509;BME280;9383;50.928;12.116;2023-05-12T05:49:57;98839.06;;;11.23;100.00
18509;BME280;9383;50.928;12.116;2023-05-12T05:52:24;98835.00;;;11.36;100.00
18509;BME280;9383;50.928;12.116;2023-05-12T05:54:50;98830.72;;;11.54;100.00
18509;BME280;9383;50.928;12.116;2023-05-12T05:57:17;98841.59;;;11.71;100.00
18509;BME280;9383;50.928;12.116;2023-05-12T05:59:43;98838.19;;;11.89;100.00
18509;BME280;9383;50.928;12.116;2023-05-12T06:02:10;98835.88;;;12.02;100.00
18509;BME280;9383;50.928;12.116;2023-05-12T06:04:37;98845.00;;;12.17;100.00
18509;BME280;9383;50.928;12.116;2023-05-12T06:07:03;98843.59;;;12.29;100.00
18509;BME280;9383;50.928;12.116;2023-05-12T06:09:30;98850.22;;;12.40;100.00
18509;BME280;9383;50.928;12.116;2023-05-12T06:11:57;98848.03;;;12.49;100.00
18509;BME280;9383;50.928;12.116;2023-05-12T06:14:24;98854.59;;;12.61;100.00
18509;BME280;9383;50.928;12.116;2023-05-12T06:16:51;98853.31;;;12.70;100.00
18509;BME280;9383;50.928;12.116;2023-05-12T06:19:17;98859.06;;;12.80;100.00
18509;BME280;9383;50.928;12.116;2023-05-12T06:21:44;98855.13;;;12.89;100.00
18509;BME280;9383;50.928;12.116;2023-05-12T06:24:10;98853.78;;;12.99;100.00
18509;BME280;9383;50.928;12.116;2023-05-12T06:26:37;98854.09;;;13.12;100.00
18509;BME280;9383;50.928;12.116;2023-05-12T06:29:17;98863.28;;;13.24;100.00
18509;BME280;9383;50.928;12.116;2023-05-12T06:31:53;98856.53;;;13.36;100.00
18509;BME280;9383;50.928;12.116;2023-05-12T06:34:20;98866.69;;;13.47;100.00
18509;BME280;9383;50.928;12.116;2023-05-12T06:36:47;98865.31;;;13.57;100.00
18509;BME280;9383;50.928;12.116;2023-05-12T06:39:14;98865.81;;;13.66;100.00
18509;BME280;9383;50.928;12.116;2023-05-12T06:41:41;98866.97;;;13.77;100.00
18509;BME280;9383;50.928;12.116;2023-05-12T06:44:07;98859.16;;;13.92;100.00
18509;BME280;9383;50.928;12.116;2023-05-12T06:46:38;98852.25;;;14.05;100.00
18509;BME280;9383;50.928;12.116;2023-05-12T06:49:08;98850.63;;;14.20;100.00
18509;BME280;9383;50.928;12.116;2023-05-12T06:51:36;98849.03;;;14.34;100.00
18509;BME280;9383;50.928;12.116;2023-05-12T06:54:03;98838.94;;;14.41;100.00
18509;BME280;9383;50.928;12.116;2023-05-12T06:56:33;98847.75;;;14.59;100.00
18509;BME280;9383;50.928;12.116;2023-05-12T06:59:00;98851.53;;;14.72;100.00
18509;BME280;9383;50.928;12.116;2023-05-12T07:01:32;98856.97;;;14.87;100.00
18509;BME280;9383;50.928;12.116;2023-05-12T07:03:59;98858.91;;;15.01;100.00
18509;BME280;9383;50.928;12.116;2023-05-12T07:06:26;98868.81;;;15.15;100.00
18509;BME280;9383;50.928;12.116;2023-05-12T07:08:56;98865.47;;;15.27;100.00
18509;BME280;9383;50.928;12.116;2023-05-12T07:11:24;98864.78;;;15.40;100.00
18509;BME280;9383;50.928;12.116;2023-05-12T07:13:57;98865.97;;;15.50;100.00
18509;BME280;9383;50.928;12.116;2023-05-12T07:16:26;98871.75;;;15.58;100.00
18509;BME280;9383;50.928;12.116;2023-05-12T07:19:38;98857.00;;;15.67;100.00
18509;BME280;9383;50.928;12.116;2023-05-12T07:22:11;98852.34;;;15.71;99.12
18509;BME280;9383;50.928;12.116;2023-05-12T07:25:01;98860.88;;;15.78;98.12
18509;BME280;9383;50.928;12.116;2023-05-12T07:27:28;98855.28;;;15.82;96.70
18509;BME280;9383;50.928;12.116;2023-05-12T07:29:55;98854.22;;;15.85;95.90
18509;BME280;9383;50.928;12.116;2023-05-12T07:32:21;98855.78;;;15.89;95.10
18509;BME280;9383;50.928;12.116;2023-05-12T07:35:23;98862.59;;;15.95;93.63
18509;BME280;9383;50.928;12.116;2023-05-12T07:37:54;98857.16;;;15.96;92.11
18509;BME280;9383;50.928;12.116;2023-05-12T07:40:21;98851.72;;;15.98;90.39
18509;BME280;9383;50.928;12.116;2023-05-12T07:42:48;98857.75;;;16.01;90.18
18509;BME280;9383;50.928;12.116;2023-05-12T07:45:15;98850.38;;;16.05;89.21
18509;BME280;9383;50.928;12.116;2023-05-12T07:47:49;98853.19;;;16.03;86.56
18509;BME280;9383;50.928;12.116;2023-05-12T07:50:17;98853.25;;;16.02;86.03
18509;BME280;9383;50.928;12.116;2023-05-12T07:53:10;98861.00;;;16.07;85.13
18509;BME280;9383;50.928;12.116;2023-05-12T07:56:37;98866.50;;;16.20;85.12
18509;BME280;9383;50.928;12.116;2023-05-12T07:59:03;98819.19;;;16.06;85.62
18509;BME280;9383;50.928;12.116;2023-05-12T08:01:54;98864.72;;;16.49;85.80
18509;BME280;9383;50.928;12.116;2023-05-12T08:04:20;98868.50;;;16.61;85.12
18509;BME280;9383;50.928;12.116;2023-05-12T08:06:47;98869.16;;;16.65;81.97
18509;BME280;9383;50.928;12.116;2023-05-12T08:09:14;98873.38;;;16.69;81.63
18509;BME280;9383;50.928;12.116;2023-05-12T08:11:40;98869.25;;;16.78;82.05
18509;BME280;9383;50.928;12.116;2023-05-12T08:14:07;98882.06;;;16.87;81.72
18509;BME280;9383;50.928;12.116;2023-05-12T08:16:34;98881.59;;;16.95;81.84
18509;BME280;9383;50.928;12.116;2023-05-12T08:19:00;98883.75;;;17.04;82.11
18509;BME280;9383;50.928;12.116;2023-05-12T08:24:39;98883.75;;;17.04;78.65
18509;BME280;9383;50.928;12.116;2023-05-12T08:27:06;98884.88;;;17.00;77.89
18509;BME280;9383;50.928;12.116;2023-05-12T08:29:36;98881.34;;;16.99;77.30
18509;BME280;9383;50.928;12.116;2023-05-12T08:32:33;98882.97;;;17.02;77.85
18509;BME280;9383;50.928;12.116;2023-05-12T08:35:26;98886.78;;;17.12;78.37
18509;BME280;9383;50.928;12.116;2023-05-12T08:37:53;98888.41;;;17.15;75.89
18509;BME280;9383;50.928;12.116;2023-05-12T08:40:21;98887.34;;;17.18;76.71
18509;BME280;9383;50.928;12.116;2023-05-12T08:43:00;98899.84;;;17.32;78.00
18509;BME280;9383;50.928;12.116;2023-05-12T08:45:36;98888.19;;;17.47;77.69
18509;BME280;9383;50.928;12.116;2023-05-12T08:48:07;98885.66;;;17.58;77.50
18509;BME280;9383;50.928;12.116;2023-05-12T08:51:14;98887.19;;;17.63;75.21
18509;BME280;9383;50.928;12.116;2023-05-12T08:53:57;98885.63;;;17.73;75.04
18509;BME280;9383;50.928;12.116;2023-05-12T08:56:30;98884.66;;;17.74;72.81
18509;BME280;9383;50.928;12.116;2023-05-12T08:58:57;98884.91;;;17.84;74.33
18509;BME280;9383;50.928;12.116;2023-05-12T09:04:37;98878.03;;;18.07;74.26
18509;BME280;9383;50.928;12.116;2023-05-12T09:07:05;98877.19;;;18.20;73.98
18509;BME280;9383;50.928;12.116;2023-05-12T09:09:33;98875.00;;;18.39;74.42
18509;BME280;9383;50.928;12.116;2023-05-12T09:12:39;98869.53;;;18.67;74.55
18509;BME280;9383;50.928;12.116;2023-05-12T09:15:07;98872.00;;;18.83;73.28
18509;BME280;9383;50.928;12.116;2023-05-12T09:17:36;98874.59;;;18.97;72.83
18509;BME280;9383;50.928;12.116;2023-05-12T09:20:03;98864.72;;;19.11;71.67
18509;BME280;9383;50.928;12.116;2023-05-12T09:22:33;98868.66;;;19.18;69.03
18509;BME280;9383;50.928;12.116;2023-05-12T09:25:13;98870.88;;;19.37;70.23
18509;BME280;9383;50.928;12.116;2023-05-12T09:27:40;98877.69;;;19.54;66.52
18509;BME280;9383;50.928;12.116;2023-05-12T09:30:07;98870.19;;;19.60;65.92
18509;BME280;9383;50.928;12.116;2023-05-12T09:32:35;98874.66;;;19.72;66.08
18509;BME280;9383;50.928;12.116;2023-05-12T09:35:09;98859.81;;;19.91;65.42
18509;BME280;9383;50.928;12.116;2023-05-12T09:37:39;98868.47;;;20.07;65.31
18509;BME280;9383;50.928;12.116;2023-05-12T09:40:07;98867.28;;;20.12;63.88
18509;BME280;9383;50.928;12.116;2023-05-12T09:42:36;98859.03;;;20.02;62.06
18509;BME280;9383;50.928;12.116;2023-05-12T09:45:04;98861.25;;;20.08;61.82
18509;BME280;9383;50.928;12.116;2023-05-12T09:47:36;98870.75;;;20.25;62.98
18509;BME280;9383;50.928;12.116;2023-05-12T09:50:04;98855.13;;;20.42;63.33
18509;BME280;9383;50.928;12.116;2023-05-12T09:52:36;98861.38;;;20.42;58.73
18509;BME280;9383;50.928;12.116;2023-05-12T09:55:07;98868.28;;;20.33;56.51
18509;BME280;9383;50.928;12.116;2023-05-12T09:57:42;98858.78;;;20.41;58.59
18509;BME280;9383;50.928;12.116;2023-05-12T10:00:11;98864.44;;;20.60;60.32
18509;BME280;9383;50.928;12.116;2023-05-12T10:02:44;98865.22;;;20.85;60.83
18509;BME280;9383;50.928;12.116;2023-05-12T10:05:19;98855.19;;;20.76;56.43
18509;BME280;9383;50.928;12.116;2023-05-12T10:07:50;98858.22;;;20.60;56.73
18509;BME280;9383;50.928;12.116;2023-05-12T10:10:22;98862.25;;;20.65;57.79
18509;BME280;9383;50.928;12.116;2023-05-12T10:12:49;98843.88;;;20.59;53.53
18509;BME280;9383;50.928;12.116;2023-05-12T10:15:17;98848.78;;;20.54;53.83
18509;BME280;9383;50.928;12.116;2023-05-12T10:17:45;98855.41;;;20.61;53.89
18509;BME280;9383;50.928;12.116;2023-05-12T10:20:15;98848.06;;;20.63;54.95
18509;BME280;9383;50.928;12.116;2023-05-12T10:22:43;98845.75;;;20.70;55.28
18509;BME280;9383;50.928;12.116;2023-05-12T10:25:13;98848.47;;;20.82;55.17
18509;BME280;9383;50.928;12.116;2023-05-12T10:27:41;98853.50;;;20.86;52.07
18509;BME280;9383;50.928;12.116;2023-05-12T10:30:08;98854.09;;;20.90;52.02
18509;BME280;9383;50.928;12.116;2023-05-12T10:32:35;98854.72;;;20.93;51.89
18509;BME280;9383;50.928;12.116;2023-05-12T10:35:11;98845.03;;;20.91;45.75
18509;BME280;9383;50.928;12.116;2023-05-12T10:37:38;98853.50;;;20.86;44.26
18509;BME280;9383;50.928;12.116;2023-05-12T10:40:07;98853.31;;;20.76;44.45
18509;BME280;9383;50.928;12.116;2023-05-12T10:42:40;98849.91;;;20.74;46.46
18509;BME280;9383;50.928;12.116;2023-05-12T10:45:18;98851.59;;;20.64;46.12
18509;BME280;9383;50.928;12.116;2023-05-12T10:47:45;98848.03;;;20.52;45.19
18509;BME280;9383;50.928;12.116;2023-05-12T10:50:13;98848.50;;;20.46;44.78
18509;BME280;9383;50.928;12.116;2023-05-12T10:52:56;98851.72;;;20.51;45.33
18509;BME280;9383;50.928;12.116;2023-05-12T10:55:49;98857.72;;;20.55;45.42
18509;BME280;9383;50.928;12.116;2023-05-12T10:58:17;98849.50;;;20.56;42.65
18509;BME280;9383;50.928;12.116;2023-05-12T11:00:46;98848.41;;;20.59;43.35
18509;BME280;9383;50.928;12.116;2023-05-12T11:03:15;98854.66;;;20.59;45.02
18509;BME280;9383;50.928;12.116;2023-05-12T11:05:43;98858.09;;;20.50;44.36
18509;BME280;9383;50.928;12.116;2023-05-12T11:08:11;98844.38;;;20.53;45.96
18509;BME280;9383;50.928;12.116;2023-05-12T11:10:40;98857.84;;;20.53;43.50
18509;BME280;9383;50.928;12.116;2023-05-12T11:13:08;98851.22;;;20.57;45.40
18509;BME280;9383;50.928;12.116;2023-05-12T11:15:34;98855.13;;;20.53;46.02
18509;BME280;9383;50.928;12.116;2023-05-12T11:18:04;98853.88;;;20.46;46.49
18509;BME280;9383;50.928;12.116;2023-05-12T11:20:31;98854.03;;;20.44;45.68
18509;BME280;9383;50.928;12.116;2023-05-12T11:22:58;98852.56;;;20.51;46.17
18509;BME280;9383;50.928;12.116;2023-05-12T11:25:26;98859.53;;;20.54;44.28
18509;BME280;9383;50.928;12.116;2023-05-12T11:27:53;98857.13;;;20.62;45.45
18509;BME280;9383;50.928;12.116;2023-05-12T11:30:20;98857.72;;;20.66;45.88
18509;BME280;9383;50.928;12.116;2023-05-12T11:32:47;98864.72;;;20.69;46.79
18509;BME280;9383;50.928;12.116;2023-05-12T11:35:16;98866.31;;;20.71;46.21
18509;BME280;9383;50.928;12.116;2023-05-12T11:37:44;98870.81;;;20.71;46.62
18509;BME280;9383;50.928;12.116;2023-05-12T11:40:21;98865.44;;;20.71;44.23
18509;BME280;9383;50.928;12.116;2023-05-12T11:42:49;98868.38;;;20.67;44.49
18509;BME280;9383;50.928;12.116;2023-05-12T11:45:26;98874.84;;;20.65;44.50
18509;BME280;9383;50.928;12.116;2023-05-12T11:48:09;98871.19;;;20.66;45.27
18509;BME280;9383;50.928;12.116;2023-05-12T11:50:37;98874.88;;;20.76;46.45
18509;BME280;9383;50.928;12.116;2023-05-12T11:53:08;98868.28;;;20.92;47.50
18509;BME280;9383;50.928;12.116;2023-05-12T11:55:35;98871.63;;;20.96;47.06
18509;BME280;9383;50.928;12.116;2023-05-12T11:58:04;98873.84;;;21.02;47.07
18509;BME280;9383;50.928;12.116;2023-05-12T12:00:34;98865.25;;;21.08;46.40
18509;BME280;9383;50.928;12.116;2023-05-12T12:03:14;98865.59;;;21.15;45.86
18509;BME280;9383;50.928;12.116;2023-05-12T12:05:43;98858.13;;;21.18;45.60
18509;BME280;9383;50.928;12.116;2023-05-12T12:08:13;98865.50;;;21.28;46.46
18509;BME280;9383;50.928;12.116;2023-05-12T12:10:46;98869.78;;;21.30;42.77
18509;BME280;9383;50.928;12.116;2023-05-12T12:13:34;98873.22;;;21.32;43.68
18509;BME280;9383;50.928;12.116;2023-05-12T12:16:01;98871.97;;;21.36;45.42
18509;BME280;9383;50.928;12.116;2023-05-12T12:18:28;98872.22;;;21.33;44.99
18509;BME280;9383;50.928;12.116;2023-05-12T12:20:55;98872.59;;;21.29;43.87
18509;BME280;9383;50.928;12.116;2023-05-12T12:23:22;98879.34;;;21.12;43.35
18509;BME280;9383;50.928;12.116;2023-05-12T12:25:48;98878.97;;;21.05;44.45
18509;BME280;9383;50.928;12.116;2023-05-12T12:28:15;98884.47;;;21.03;43.81
18509;BME280;9383;50.928;12.116;2023-05-12T12:30:42;98883.25;;;20.96;43.90
18509;BME280;9383;50.928;12.116;2023-05-12T12:33:10;98882.16;;;20.87;44.42
18509;BME280;9383;50.928;12.116;2023-05-12T12:35:38;98889.72;;;20.82;43.74
18509;BME280;9383;50.928;12.116;2023-05-12T12:38:05;98883.09;;;20.75;43.40
18509;BME280;9383;50.928;12.116;2023-05-12T12:40:33;98890.91;;;20.66;42.84
18509;BME280;9383;50.928;12.116;2023-05-12T12:43:00;98888.56;;;20.62;43.38
18509;BME280;9383;50.928;12.116;2023-05-12T12:45:27;98893.13;;;20.61;43.17
18509;BME280;9383;50.928;12.116;2023-05-12T12:51:48;98886.53;;;20.77;41.76
18509;BME280;9383;50.928;12.116;2023-05-12T12:55:32;98888.88;;;20.82;42.69
18509;BME280;9383;50.928;12.116;2023-05-12T12:58:44;98889.69;;;20.71;43.57
18509;BME280;9383;50.928;12.116;2023-05-12T13:01:11;98898.25;;;20.64;43.45
18509;BME280;9383;50.928;12.116;2023-05-12T13:03:39;98895.91;;;20.60;43.33
18509;BME280;9383;50.928;12.116;2023-05-12T13:06:06;98900.78;;;20.43;42.19
18509;BME280;9383;50.928;12.116;2023-05-12T13:08:32;98900.09;;;20.28;42.54
18509;BME280;9383;50.928;12.116;2023-05-12T13:10:59;98903.22;;;20.10;43.37
18509;BME280;9383;50.928;12.116;2023-05-12T13:13:27;98902.66;;;19.94;43.95
18509;BME280;9383;50.928;12.116;2023-05-12T13:15:54;98889.91;;;19.72;44.57
18509;BME280;9383;50.928;12.116;2023-05-12T13:18:22;98902.53;;;19.58;45.46
18509;BME280;9383;50.928;12.116;2023-05-12T13:20:48;98905.16;;;19.47;46.09